sensor_id;sensor_type;location;lat;lon;timestamp;temperature;humidity
4809;DHT22;2418;49.930;8.606;2022-12-10T00:01:06;1.10;99.20
4809;DHT22;2418;49.930;8.606;2022-12-10T00:03:32;1.00;99.20
4809;DHT22;2418;49.930;8.606;2022-12-10T00:06:05;1.10;99.20
4809;DHT22;2418;49.930;8.606;2022-12-10T00:08:31;1.10;99.20
4809;DHT22;2418;49.930;8.606;2022-12-10T00:10:58;1.10;99.20
4809;DHT22;2418;49.930;8.606;2022-12-10T00:13:24;1.10;99.20
4809;DHT22;2418;49.930;8.606;2022-12-10T00:15:50;1.10;99.20
4809;DHT22;2418;49.930;8.606;2022-12-10T00:18:15;1.10;99.20
4809;DHT22;2418;49.930;8.606;2022-12-10T00:20:41;1.10;99.20
4809;DHT22;2418;49.930;8.606;2022-12-10T00:23:06;1.10;99.20
4809;DHT22;2418;49.930;8.606;2022-12-10T00:25:32;1.10;99.20
4809;DHT22;2418;49.930;8.606;2022-12-10T00:27:58;1.00;99.20
4809;DHT22;2418;49.930;8.606;2022-12-10T00:30:24;1.00;99.20
4809;DHT22;2418;49.930;8.606;2022-12-10T00:32:51;1.00;99.20
4809;DHT22;2418;49.930;8.606;2022-12-10T00:35:16;1.00;99.20
4809;DHT22;2418;49.930;8.606;2022-12-10T00:37:42;1.00;99.20
4809;DHT22;2418;49.930;8.606;2022-12-10T00:40:08;1.00;99.20
4809;DHT22;2418;49.930;8.606;2022-12-10T00:42:34;1.00;99.20
4809;DHT22;2418;49.930;8.606;2022-12-10T00:45:00;1.00;99.20
4809;DHT22;2418;49.930;8.606;2022-12-10T00:47:27;0.90;99.20
4809;DHT22;2418;49.930;8.606;2022-12-10T00:49:53;0.90;99.20
4809;DHT22;2418;49.930;8.606;2022-12-10T00:52:19;0.80;99.20
4809;DHT22;2418;49.930;8.606;2022-12-10T00:54:45;0.90;99.20
4809;DHT22;2418;49.930;8.606;2022-12-10T00:57:10;0.90;99.20
4809;DHT22;2418;49.930;8.606;2022-12-10T00:59:36;0.90;99.20
4809;DHT22;2418;49.930;8.606;2022-12-10T01:02:01;0.90;99.20
4809;DHT22;2418;49.930;8.606;2022-12-10T01:04:27;0.90;99.20
4809;DHT22;2418;49.930;8.606;2022-12-10T01:06:53;0.80;99.20
4809;DHT22;2418;49.930;8.606;2022-12-10T01:09:22;0.90;99.20
4809;DHT22;2418;49.930;8.606;2022-12-10T01:11:49;0.90;99.20
4809;DHT22;2418;49.930;8.606;2022-12-10T01:14:24;0.90;99.20
4809;DHT22;2418;49.930;8.606;2022-12-10T01:16:53;0.80;99.20
4809;DHT22;2418;49.930;8.606;2022-12-10T01:19:19;0.80;99.20
4809;DHT22;2418;49.930;8.606;2022-12-10T01:21:52;0.80;99.20
4809;DHT22;2418;49.930;8.606;2022-12-10T01:24:24;0.80;99.20
4809;DHT22;2418;49.930;8.606;2022-12-10T01:26:51;0.80;99.20
4809;DHT22;2418;49.930;8.606;2022-12-10T01:29:17;0.80;99.20
4809;DHT22;2418;49.930;8.606;2022-12-10T01:31:43;0.80;99.20
4809;DHT22;2418;49.930;8.606;2022-12-10T01:34:12;0.80;99.20
4809;DHT22;2418;49.930;8.606;2022-12-10T01:36:41;0.80;99.20
4809;DHT22;2418;49.930;8.606;2022-12-10T01:39:08;0.80;99.20
4809;DHT22;2418;49.930;8.606;2022-12-10T01:41:44;0.80;99.20
4809;DHT22;2418;49.930;8.606;2022-12-10T01:46:41;0.80;99.20
4809;DHT22;2418;49.930;8.606;2022-12-10T01:49:13;0.80;99.20
4809;DHT22;2418;49.930;8.606;2022-12-10T01:52:01;0.80;99.20
4809;DHT22;2418;49.930;8.606;2022-12-10T01:54:29;0.80;99.20
4809;DHT22;2418;49.930;8.606;2022-12-10T01:57:06;0.80;99.20
4809;DHT22;2418;49.930;8.606;2022-12-10T01:59:33;0.80;99.20
4809;DHT22;2418;49.930;8.606;2022-12-10T02:10:32;0.80;99.20
4809;DHT22;2418;49.930;8.606;2022-12-10T02:16:01;0.80;99.20
4809;DHT22;2418;49.930;8.606;2022-12-10T02:18:56;0.80;99.20
4809;DHT22;2418;49.930;8.606;2022-12-10T02:21:28;0.80;99.20
4809;DHT22;2418;49.930;8.606;2022-12-10T02:23:59;0.70;99.20
4809;DHT22;2418;49.930;8.606;2022-12-10T02:29:27;0.70;99.20
4809;DHT22;2418;49.930;8.606;2022-12-10T02:32:17;0.80;99.20
4809;DHT22;2418;49.930;8.606;2022-12-10T02:34:50;0.70;99.20
4809;DHT22;2418;49.930;8.606;2022-12-10T02:37:27;0.70;99.20
4809;DHT22;2418;49.930;8.606;2022-12-10T02:39:55;0.60;99.20
4809;DHT22;2418;49.930;8.606;2022-12-10T02:42:25;0.60;99.20
4809;DHT22;2418;49.930;8.606;2022-12-10T02:44:53;0.70;99.20
4809;DHT22;2418;49.930;8.606;2022-12-10T02:47:20;0.70;99.20
4809;DHT22;2418;49.930;8.606;2022-12-10T02:49:47;0.70;99.20
4809;DHT22;2418;49.930;8.606;2022-12-10T02:52:18;0.70;99.20
4809;DHT22;2418;49.930;8.606;2022-12-10T02:54:47;0.60;99.20
4809;DHT22;2418;49.930;8.606;2022-12-10T03:00:11;0.60;99.20
4809;DHT22;2418;49.930;8.606;2022-12-10T03:05:28;0.60;99.20
4809;DHT22;2418;49.930;8.606;2022-12-10T03:13:32;0.60;99.20
4809;DHT22;2418;49.930;8.606;2022-12-10T03:16:02;0.60;99.20
4809;DHT22;2418;49.930;8.606;2022-12-10T03:18:34;0.60;99.20
4809;DHT22;2418;49.930;8.606;2022-12-10T03:21:04;0.60;99.20
4809;DHT22;2418;49.930;8.606;2022-12-10T03:23:32;0.50;99.20
4809;DHT22;2418;49.930;8.606;2022-12-10T03:25:58;0.60;99.20
4809;DHT22;2418;49.930;8.606;2022-12-10T03:28:25;0.60;99.20
4809;DHT22;2418;49.930;8.606;2022-12-10T03:30:52;0.60;99.20
4809;DHT22;2418;49.930;8.606;2022-12-10T03:33:19;0.60;99.20
4809;DHT22;2418;49.930;8.606;2022-12-10T03:35:46;0.60;99.20
4809;DHT22;2418;49.930;8.606;2022-12-10T03:38:12;0.60;99.20
4809;DHT22;2418;49.930;8.606;2022-12-10T03:40:39;0.60;99.20
4809;DHT22;2418;49.930;8.606;2022-12-10T03:43:04;0.60;99.20
4809;DHT22;2418;49.930;8.606;2022-12-10T03:45:32;0.60;99.20
4809;DHT22;2418;49.930;8.606;2022-12-10T03:47:57;0.50;99.20
4809;DHT22;2418;49.930;8.606;2022-12-10T03:50:23;0.50;99.20
4809;DHT22;2418;49.930;8.606;2022-12-10T03:52:49;0.50;99.20
4809;DHT22;2418;49.930;8.606;2022-12-10T03:55:14;0.50;99.20
4809;DHT22;2418;49.930;8.606;2022-12-10T03:57:40;0.40;99.20
4809;DHT22;2418;49.930;8.606;2022-12-10T04:00:06;0.40;99.20
4809;DHT22;2418;49.930;8.606;2022-12-10T04:02:32;0.40;99.20
4809;DHT22;2418;49.930;8.606;2022-12-10T04:04:58;0.40;99.20
4809;DHT22;2418;49.930;8.606;2022-12-10T04:07:24;0.30;99.20
4809;DHT22;2418;49.930;8.606;2022-12-10T04:09:49;0.30;99.20
4809;DHT22;2418;49.930;8.606;2022-12-10T04:12:15;0.30;99.20
4809;DHT22;2418;49.930;8.606;2022-12-10T04:14:41;0.30;99.20
4809;DHT22;2418;49.930;8.606;2022-12-10T04:17:25;0.30;99.20
4809;DHT22;2418;49.930;8.606;2022-12-10T04:19:51;0.30;99.20
4809;DHT22;2418;49.930;8.606;2022-12-10T04:22:17;0.30;99.20
4809;DHT22;2418;49.930;8.606;2022-12-10T04:25:02;0.40;99.20
4809;DHT22;2418;49.930;8.606;2022-12-10T04:27:46;0.40;99.20
4809;DHT22;2418;49.930;8.606;2022-12-10T04:30:12;0.30;99.20
4809;DHT22;2418;49.930;8.606;2022-12-10T04:32:38;0.30;99.20
4809;DHT22;2418;49.930;8.606;2022-12-10T04:35:04;0.20;99.20
4809;DHT22;2418;49.930;8.606;2022-12-10T04:37:30;0.20;99.20
4809;DHT22;2418;49.930;8.606;2022-12-10T04:39:56;0.20;99.20
4809;DHT22;2418;49.930;8.606;2022-12-10T04:42:22;0.20;99.20
4809;DHT22;2418;49.930;8.606;2022-12-10T04:44:49;0.20;99.20
4809;DHT22;2418;49.930;8.606;2022-12-10T04:47:15;0.10;99.20
4809;DHT22;2418;49.930;8.606;2022-12-10T04:49:40;0.10;99.20
4809;DHT22;2418;49.930;8.606;2022-12-10T04:52:08;0.10;99.20
4809;DHT22;2418;49.930;8.606;2022-12-10T04:54:33;0.00;99.20
4809;DHT22;2418;49.930;8.606;2022-12-10T04:56:59;0.10;99.20
4809;DHT22;2418;49.930;8.606;2022-12-10T04:59:25;0.10;99.20
4809;DHT22;2418;49.930;8.606;2022-12-10T05:01:50;0.00;99.20
4809;DHT22;2418;49.930;8.606;2022-12-10T05:04:17;0.00;99.20
4809;DHT22;2418;49.930;8.606;2022-12-10T05:06:43;-0.10;99.20
4809;DHT22;2418;49.930;8.606;2022-12-10T05:09:13;-0.10;99.20
4809;DHT22;2418;49.930;8.606;2022-12-10T05:11:39;-0.10;99.20
4809;DHT22;2418;49.930;8.606;2022-12-10T05:14:05;-0.10;99.20
4809;DHT22;2418;49.930;8.606;2022-12-10T05:16:32;-0.10;99.20
4809;DHT22;2418;49.930;8.606;2022-12-10T05:18:59;-0.20;99.20
4809;DHT22;2418;49.930;8.606;2022-12-10T05:21:26;-0.30;99.20
4809;DHT22;2418;49.930;8.606;2022-12-10T05:24:11;-0.20;99.20
4809;DHT22;2418;49.930;8.606;2022-12-10T05:26:36;-0.20;99.20
4809;DHT22;2418;49.930;8.606;2022-12-10T05:29:02;-0.30;99.20
4809;DHT22;2418;49.930;8.606;2022-12-10T05:31:29;-0.30;99.20
4809;DHT22;2418;49.930;8.606;2022-12-10T05:33:56;-0.40;99.20
4809;DHT22;2418;49.930;8.606;2022-12-10T05:36:25;-0.40;99.20
4809;DHT22;2418;49.930;8.606;2022-12-10T05:38:53;-0.40;99.20
4809;DHT22;2418;49.930;8.606;2022-12-10T05:41:27;-0.40;99.20
4809;DHT22;2418;49.930;8.606;2022-12-10T05:43:54;-0.50;99.20
4809;DHT22;2418;49.930;8.606;2022-12-10T05:46:22;-0.60;99.20
4809;DHT22;2418;49.930;8.606;2022-12-10T05:48:49;-0.60;99.20
4809;DHT22;2418;49.930;8.606;2022-12-10T05:51:17;-0.60;99.20
4809;DHT22;2418;49.930;8.606;2022-12-10T05:53:43;-0.60;99.20
4809;DHT22;2418;49.930;8.606;2022-12-10T05:56:12;-0.70;99.20
4809;DHT22;2418;49.930;8.606;2022-12-10T05:58:39;-0.70;99.20
4809;DHT22;2418;49.930;8.606;2022-12-10T06:03:34;-0.70;99.20
4809;DHT22;2418;49.930;8.606;2022-12-10T06:05:59;-0.70;99.20
4809;DHT22;2418;49.930;8.606;2022-12-10T06:08:25;-0.80;99.20
4809;DHT22;2418;49.930;8.606;2022-12-10T06:10:50;-0.80;99.20
4809;DHT22;2418;49.930;8.606;2022-12-10T06:13:16;-0.80;99.20
4809;DHT22;2418;49.930;8.606;2022-12-10T06:15:42;-0.90;99.20
4809;DHT22;2418;49.930;8.606;2022-12-10T06:18:08;-0.90;99.20
4809;DHT22;2418;49.930;8.606;2022-12-10T06:20:36;-0.90;99.20
4809;DHT22;2418;49.930;8.606;2022-12-10T06:23:02;-1.00;99.20
4809;DHT22;2418;49.930;8.606;2022-12-10T06:25:28;-1.00;99.20
4809;DHT22;2418;49.930;8.606;2022-12-10T06:27:53;-1.00;99.20
4809;DHT22;2418;49.930;8.606;2022-12-10T06:30:19;-1.10;99.20
4809;DHT22;2418;49.930;8.606;2022-12-10T06:32:44;-1.10;99.20
4809;DHT22;2418;49.930;8.606;2022-12-10T06:35:10;-1.20;99.20
4809;DHT22;2418;49.930;8.606;2022-12-10T06:37:36;-1.30;99.20
4809;DHT22;2418;49.930;8.606;2022-12-10T06:40:02;-1.30;99.20
4809;DHT22;2418;49.930;8.606;2022-12-10T06:42:28;-1.30;99.20
4809;DHT22;2418;49.930;8.606;2022-12-10T06:44:54;-1.30;99.20
4809;DHT22;2418;49.930;8.606;2022-12-10T06:47:19;-1.30;99.20
4809;DHT22;2418;49.930;8.606;2022-12-10T06:49:45;-1.40;99.20
4809;DHT22;2418;49.930;8.606;2022-12-10T06:52:10;-1.40;99.20
4809;DHT22;2418;49.930;8.606;2022-12-10T06:54:36;-1.50;99.20
4809;DHT22;2418;49.930;8.606;2022-12-10T06:57:02;-1.50;99.20
4809;DHT22;2418;49.930;8.606;2022-12-10T06:59:27;-1.50;99.20
4809;DHT22;2418;49.930;8.606;2022-12-10T07:01:53;-1.50;99.20
4809;DHT22;2418;49.930;8.606;2022-12-10T07:04:18;-1.40;99.20
4809;DHT22;2418;49.930;8.606;2022-12-10T07:06:44;-1.40;99.20
4809;DHT22;2418;49.930;8.606;2022-12-10T07:09:10;-1.30;99.20
4809;DHT22;2418;49.930;8.606;2022-12-10T07:11:36;-1.20;99.20
4809;DHT22;2418;49.930;8.606;2022-12-10T07:14:02;-1.10;99.20
4809;DHT22;2418;49.930;8.606;2022-12-10T07:16:29;-1.10;99.20
4809;DHT22;2418;49.930;8.606;2022-12-10T07:18:56;-1.00;99.20
4809;DHT22;2418;49.930;8.606;2022-12-10T07:21:34;-1.00;99.20
4809;DHT22;2418;49.930;8.606;2022-12-10T07:24:10;-1.00;99.20
4809;DHT22;2418;49.930;8.606;2022-12-10T07:26:38;-0.90;99.20
4809;DHT22;2418;49.930;8.606;2022-12-10T07:29:05;-0.90;99.20
4809;DHT22;2418;49.930;8.606;2022-12-10T07:31:31;-0.80;99.20
4809;DHT22;2418;49.930;8.606;2022-12-10T07:33:58;-0.60;99.20
4809;DHT22;2418;49.930;8.606;2022-12-10T07:36:24;-0.50;99.20
4809;DHT22;2418;49.930;8.606;2022-12-10T07:38:53;-0.60;99.20
4809;DHT22;2418;49.930;8.606;2022-12-10T07:41:21;-0.50;99.20
4809;DHT22;2418;49.930;8.606;2022-12-10T07:43:47;-0.50;99.20
4809;DHT22;2418;49.930;8.606;2022-12-10T07:46:22;-0.50;99.20
4809;DHT22;2418;49.930;8.606;2022-12-10T07:48:48;-0.30;99.20
4809;DHT22;2418;49.930;8.606;2022-12-10T07:51:16;-0.10;99.20
4809;DHT22;2418;49.930;8.606;2022-12-10T07:53:42;-0.10;99.20
4809;DHT22;2418;49.930;8.606;2022-12-10T07:56:09;-0.10;99.20
4809;DHT22;2418;49.930;8.606;2022-12-10T07:58:34;0.00;99.20
4809;DHT22;2418;49.930;8.606;2022-12-10T08:01:06;0.00;99.20
4809;DHT22;2418;49.930;8.606;2022-12-10T08:03:32;0.10;99.20
4809;DHT22;2418;49.930;8.606;2022-12-10T08:06:02;0.10;99.20
4809;DHT22;2418;49.930;8.606;2022-12-10T08:08:28;0.10;99.20
4809;DHT22;2418;49.930;8.606;2022-12-10T08:10:54;0.20;99.20
4809;DHT22;2418;49.930;8.606;2022-12-10T08:13:19;0.20;99.20
4809;DHT22;2418;49.930;8.606;2022-12-10T08:15:45;0.20;99.20
4809;DHT22;2418;49.930;8.606;2022-12-10T08:18:10;0.20;99.20
4809;DHT22;2418;49.930;8.606;2022-12-10T08:20:36;0.30;99.20
4809;DHT22;2418;49.930;8.606;2022-12-10T08:23:01;0.50;99.20
4809;DHT22;2418;49.930;8.606;2022-12-10T08:25:27;0.50;99.20
4809;DHT22;2418;49.930;8.606;2022-12-10T08:27:52;0.50;99.20
4809;DHT22;2418;49.930;8.606;2022-12-10T08:30:18;0.50;99.20
4809;DHT22;2418;49.930;8.606;2022-12-10T08:32:43;0.60;99.20
4809;DHT22;2418;49.930;8.606;2022-12-10T08:35:09;0.60;99.20
4809;DHT22;2418;49.930;8.606;2022-12-10T08:37:34;0.60;99.20
4809;DHT22;2418;49.930;8.606;2022-12-10T08:40:00;0.60;99.20
4809;DHT22;2418;49.930;8.606;2022-12-10T08:42:25;0.70;99.20
4809;DHT22;2418;49.930;8.606;2022-12-10T08:44:51;0.80;99.20
4809;DHT22;2418;49.930;8.606;2022-12-10T08:47:16;0.80;99.20
4809;DHT22;2418;49.930;8.606;2022-12-10T08:49:42;0.90;99.20
4809;DHT22;2418;49.930;8.606;2022-12-10T08:52:07;1.00;99.20
4809;DHT22;2418;49.930;8.606;2022-12-10T08:54:33;1.00;99.20
4809;DHT22;2418;49.930;8.606;2022-12-10T08:56:59;1.10;99.20
4809;DHT22;2418;49.930;8.606;2022-12-10T08:59:24;1.10;99.20
4809;DHT22;2418;49.930;8.606;2022-12-10T09:01:51;1.20;99.20
4809;DHT22;2418;49.930;8.606;2022-12-10T09:04:17;1.30;99.20
4809;DHT22;2418;49.930;8.606;2022-12-10T09:06:43;1.30;99.20
4809;DHT22;2418;49.930;8.606;2022-12-10T09:09:08;1.30;99.20
4809;DHT22;2418;49.930;8.606;2022-12-10T09:11:35;1.40;99.20
4809;DHT22;2418;49.930;8.606;2022-12-10T09:14:01;1.40;99.20
4809;DHT22;2418;49.930;8.606;2022-12-10T09:16:31;1.30;99.20
4809;DHT22;2418;49.930;8.606;2022-12-10T09:18:57;1.40;99.20
4809;DHT22;2418;49.930;8.606;2022-12-10T09:21:23;1.40;99.20
4809;DHT22;2418;49.930;8.606;2022-12-10T09:23:49;1.50;99.20
4809;DHT22;2418;49.930;8.606;2022-12-10T09:26:16;1.60;99.20
4809;DHT22;2418;49.930;8.606;2022-12-10T09:28:42;1.60;99.20
4809;DHT22;2418;49.930;8.606;2022-12-10T09:31:09;1.70;99.20
4809;DHT22;2418;49.930;8.606;2022-12-10T09:33:35;1.90;99.20
4809;DHT22;2418;49.930;8.606;2022-12-10T09:36:03;2.00;99.20
4809;DHT22;2418;49.930;8.606;2022-12-10T09:38:30;2.00;99.20
4809;DHT22;2418;49.930;8.606;2022-12-10T09:40:59;1.80;99.20
4809;DHT22;2418;49.930;8.606;2022-12-10T09:43:32;1.80;99.20
4809;DHT22;2418;49.930;8.606;2022-12-10T09:49:05;1.90;99.20
4809;DHT22;2418;49.930;8.606;2022-12-10T09:51:36;1.90;99.20
4809;DHT22;2418;49.930;8.606;2022-12-10T09:54:11;2.00;99.20
4809;DHT22;2418;49.930;8.606;2022-12-10T09:56:40;2.10;99.20
4809;DHT22;2418;49.930;8.606;2022-12-10T09:59:39;2.10;99.20
4809;DHT22;2418;49.930;8.606;2022-12-10T10:04:41;2.00;99.20
4809;DHT22;2418;49.930;8.606;2022-12-10T10:07:08;2.10;99.20
4809;DHT22;2418;49.930;8.606;2022-12-10T10:09:39;2.10;99.20
4809;DHT22;2418;49.930;8.606;2022-12-10T10:12:13;2.00;99.20
4809;DHT22;2418;49.930;8.606;2022-12-10T10:14:41;2.00;99.20
4809;DHT22;2418;49.930;8.606;2022-12-10T10:17:31;2.00;99.20
4809;DHT22;2418;49.930;8.606;2022-12-10T10:19:59;2.10;99.20
4809;DHT22;2418;49.930;8.606;2022-12-10T10:22:25;2.10;99.20
4809;DHT22;2418;49.930;8.606;2022-12-10T10:24:52;2.20;99.20
4809;DHT22;2418;49.930;8.606;2022-12-10T10:27:26;2.20;99.20
4809;DHT22;2418;49.930;8.606;2022-12-10T10:29:55;2.40;99.20
4809;DHT22;2418;49.930;8.606;2022-12-10T10:32:23;2.50;99.20
4809;DHT22;2418;49.930;8.606;2022-12-10T10:34:54;2.60;99.20
4809;DHT22;2418;49.930;8.606;2022-12-10T10:37:21;2.70;99.20
4809;DHT22;2418;49.930;8.606;2022-12-10T10:39:49;2.80;99.20
4809;DHT22;2418;49.930;8.606;2022-12-10T10:44:57;2.80;99.20
4809;DHT22;2418;49.930;8.606;2022-12-10T10:47:27;2.80;99.20
4809;DHT22;2418;49.930;8.606;2022-12-10T10:49:53;2.80;99.20
4809;DHT22;2418;49.930;8.606;2022-12-10T10:52:19;2.80;99.20
4809;DHT22;2418;49.930;8.606;2022-12-10T10:54:46;2.70;99.20
4809;DHT22;2418;49.930;8.606;2022-12-10T10:59:45;2.40;99.20
4809;DHT22;2418;49.930;8.606;2022-12-10T11:04:53;2.40;99.20
4809;DHT22;2418;49.930;8.606;2022-12-10T11:07:23;2.50;99.20
4809;DHT22;2418;49.930;8.606;2022-12-10T11:09:53;2.50;99.20
4809;DHT22;2418;49.930;8.606;2022-12-10T11:12:39;2.60;99.20
4809;DHT22;2418;49.930;8.606;2022-12-10T11:17:54;2.90;99.20
4809;DHT22;2418;49.930;8.606;2022-12-10T11:20:23;3.10;99.20
4809;DHT22;2418;49.930;8.606;2022-12-10T11:22:54;3.10;99.20
4809;DHT22;2418;49.930;8.606;2022-12-10T11:31:08;3.20;99.20
4809;DHT22;2418;49.930;8.606;2022-12-10T11:36:31;3.30;99.20
4809;DHT22;2418;49.930;8.606;2022-12-10T11:39:27;3.30;99.20
4809;DHT22;2418;49.930;8.606;2022-12-10T11:42:08;3.30;99.20
4809;DHT22;2418;49.930;8.606;2022-12-10T11:45:02;3.30;99.20
4809;DHT22;2418;49.930;8.606;2022-12-10T11:50:47;3.30;99.20
4809;DHT22;2418;49.930;8.606;2022-12-10T11:58:48;3.30;99.20
4809;DHT22;2418;49.930;8.606;2022-12-10T12:01:23;3.30;99.20
4809;DHT22;2418;49.930;8.606;2022-12-10T12:09:54;3.00;99.20
4809;DHT22;2418;49.930;8.606;2022-12-10T12:12:58;3.00;99.20
4809;DHT22;2418;49.930;8.606;2022-12-10T12:20:57;3.20;99.20
4809;DHT22;2418;49.930;8.606;2022-12-10T12:23:28;3.20;99.20
4809;DHT22;2418;49.930;8.606;2022-12-10T12:26:03;3.30;99.20
4809;DHT22;2418;49.930;8.606;2022-12-10T12:28:36;3.30;99.20
4809;DHT22;2418;49.930;8.606;2022-12-10T12:31:12;3.30;99.20
4809;DHT22;2418;49.930;8.606;2022-12-10T12:36:14;3.30;99.20
4809;DHT22;2418;49.930;8.606;2022-12-10T12:39:01;3.20;99.20
4809;DHT22;2418;49.930;8.606;2022-12-10T12:41:45;3.20;99.20
4809;DHT22;2418;49.930;8.606;2022-12-10T12:44:33;3.30;99.20
4809;DHT22;2418;49.930;8.606;2022-12-10T12:47:22;3.20;99.20
4809;DHT22;2418;49.930;8.606;2022-12-10T12:49:55;3.20;99.20
4809;DHT22;2418;49.930;8.606;2022-12-10T12:52:44;3.00;99.20
4809;DHT22;2418;49.930;8.606;2022-12-10T12:55:17;3.10;99.20
4809;DHT22;2418;49.930;8.606;2022-12-10T13:00:35;3.10;99.20
4809;DHT22;2418;49.930;8.606;2022-12-10T13:03:15;3.10;99.20
4809;DHT22;2418;49.930;8.606;2022-12-10T13:05:46;3.20;99.20
4809;DHT22;2418;49.930;8.606;2022-12-10T13:11:15;3.60;99.20
4809;DHT22;2418;49.930;8.606;2022-12-10T13:24:43;3.50;99.20
4809;DHT22;2418;49.930;8.606;2022-12-10T13:27:28;3.50;99.20
4809;DHT22;2418;49.930;8.606;2022-12-10T13:37:37;3.50;99.20
4809;DHT22;2418;49.930;8.606;2022-12-10T13:48:57;3.60;99.20
4809;DHT22;2418;49.930;8.606;2022-12-10T13:54:07;3.70;99.20
4809;DHT22;2418;49.930;8.606;2022-12-10T13:57:00;3.70;99.20
4809;DHT22;2418;49.930;8.606;2022-12-10T13:59:37;3.70;99.20
4809;DHT22;2418;49.930;8.606;2022-12-10T14:02:58;3.70;99.20
4809;DHT22;2418;49.930;8.606;2022-12-10T14:08:20;3.70;99.20
4809;DHT22;2418;49.930;8.606;2022-12-10T14:10:50;3.70;99.20
4809;DHT22;2418;49.930;8.606;2022-12-10T14:13:18;3.70;99.20
4809;DHT22;2418;49.930;8.606;2022-12-10T14:15:53;3.60;99.20
4809;DHT22;2418;49.930;8.606;2022-12-10T14:18:21;3.50;99.20
4809;DHT22;2418;49.930;8.606;2022-12-10T14:20:50;3.50;99.20
4809;DHT22;2418;49.930;8.606;2022-12-10T14:23:26;3.50;99.20
4809;DHT22;2418;49.930;8.606;2022-12-10T14:28:31;3.20;99.20
4809;DHT22;2418;49.930;8.606;2022-12-10T14:30:59;3.20;99.20
4809;DHT22;2418;49.930;8.606;2022-12-10T14:33:24;3.20;99.20
4809;DHT22;2418;49.930;8.606;2022-12-10T14:35:52;3.20;99.20
4809;DHT22;2418;49.930;8.606;2022-12-10T14:38:29;3.10;99.20
4809;DHT22;2418;49.930;8.606;2022-12-10T14:40:55;3.00;99.20
4809;DHT22;2418;49.930;8.606;2022-12-10T14:43:39;3.00;99.20
4809;DHT22;2418;49.930;8.606;2022-12-10T14:46:21;2.90;99.20
4809;DHT22;2418;49.930;8.606;2022-12-10T14:48:52;2.90;99.20
4809;DHT22;2418;49.930;8.606;2022-12-10T14:51:26;2.90;99.20
4809;DHT22;2418;49.930;8.606;2022-12-10T14:53:54;2.80;99.20
4809;DHT22;2418;49.930;8.606;2022-12-10T14:56:27;2.80;99.20
4809;DHT22;2418;49.930;8.606;2022-12-10T14:59:01;2.80;99.20
4809;DHT22;2418;49.930;8.606;2022-12-10T15:01:34;2.90;99.20
4809;DHT22;2418;49.930;8.606;2022-12-10T15:04:03;2.90;99.20
4809;DHT22;2418;49.930;8.606;2022-12-10T15:06:36;2.80;99.20
4809;DHT22;2418;49.930;8.606;2022-12-10T15:09:03;2.70;99.20
4809;DHT22;2418;49.930;8.606;2022-12-10T15:11:29;2.70;99.20
4809;DHT22;2418;49.930;8.606;2022-12-10T15:14:00;2.60;99.20
4809;DHT22;2418;49.930;8.606;2022-12-10T15:16:42;2.50;99.20
4809;DHT22;2418;49.930;8.606;2022-12-10T15:21:43;2.30;99.20
4809;DHT22;2418;49.930;8.606;2022-12-10T15:24:19;2.30;99.20
4809;DHT22;2418;49.930;8.606;2022-12-10T15:26:47;2.20;99.20
4809;DHT22;2418;49.930;8.606;2022-12-10T15:31:48;2.00;99.20
4809;DHT22;2418;49.930;8.606;2022-12-10T15:34:15;1.90;99.20
4809;DHT22;2418;49.930;8.606;2022-12-10T15:36:55;1.80;99.20
4809;DHT22;2418;49.930;8.606;2022-12-10T15:39:43;1.70;99.20
4809;DHT22;2418;49.930;8.606;2022-12-10T15:42:24;1.60;99.20
4809;DHT22;2418;49.930;8.606;2022-12-10T15:44:56;1.60;99.20
4809;DHT22;2418;49.930;8.606;2022-12-10T15:47:28;1.50;99.20
4809;DHT22;2418;49.930;8.606;2022-12-10T15:49:56;1.50;99.20
4809;DHT22;2418;49.930;8.606;2022-12-10T15:54:51;1.30;99.20
4809;DHT22;2418;49.930;8.606;2022-12-10T15:57:18;1.30;99.20
4809;DHT22;2418;49.930;8.606;2022-12-10T15:59:47;1.20;99.20
4809;DHT22;2418;49.930;8.606;2022-12-10T16:02:46;1.20;99.20
4809;DHT22;2418;49.930;8.606;2022-12-10T16:07:43;1.10;99.20
4809;DHT22;2418;49.930;8.606;2022-12-10T16:10:11;0.90;99.20
4809;DHT22;2418;49.930;8.606;2022-12-10T16:12:38;0.90;99.20
4809;DHT22;2418;49.930;8.606;2022-12-10T16:15:07;0.90;99.20
4809;DHT22;2418;49.930;8.606;2022-12-10T16:17:35;0.80;99.20
4809;DHT22;2418;49.930;8.606;2022-12-10T16:20:17;0.70;99.20
4809;DHT22;2418;49.930;8.606;2022-12-10T16:22:44;0.60;99.20
4809;DHT22;2418;49.930;8.606;2022-12-10T16:25:10;0.50;99.20
4809;DHT22;2418;49.930;8.606;2022-12-10T16:27:35;0.40;99.20
4809;DHT22;2418;49.930;8.606;2022-12-10T16:32:42;0.30;99.20
4809;DHT22;2418;49.930;8.606;2022-12-10T16:35:08;0.30;99.20
4809;DHT22;2418;49.930;8.606;2022-12-10T16:37:33;0.30;99.20
4809;DHT22;2418;49.930;8.606;2022-12-10T16:40:01;0.20;99.20
4809;DHT22;2418;49.930;8.606;2022-12-10T16:42:27;0.20;99.20
4809;DHT22;2418;49.930;8.606;2022-12-10T16:44:55;0.20;99.20
4809;DHT22;2418;49.930;8.606;2022-12-10T16:47:22;0.20;99.20
4809;DHT22;2418;49.930;8.606;2022-12-10T16:49:48;0.20;99.20
4809;DHT22;2418;49.930;8.606;2022-12-10T16:52:15;0.20;99.20
4809;DHT22;2418;49.930;8.606;2022-12-10T16:54:40;0.10;99.20
4809;DHT22;2418;49.930;8.606;2022-12-10T16:57:14;0.10;99.20
4809;DHT22;2418;49.930;8.606;2022-12-10T16:59:40;0.00;99.20
4809;DHT22;2418;49.930;8.606;2022-12-10T17:02:13;0.00;99.20
4809;DHT22;2418;49.930;8.606;2022-12-10T17:04:40;0.00;99.20
4809;DHT22;2418;49.930;8.606;2022-12-10T17:07:05;-0.10;99.20
4809;DHT22;2418;49.930;8.606;2022-12-10T17:09:31;0.00;99.20
4809;DHT22;2418;49.930;8.606;2022-12-10T17:11:57;-0.10;99.20
4809;DHT22;2418;49.930;8.606;2022-12-10T17:14:38;0.00;99.20
4809;DHT22;2418;49.930;8.606;2022-12-10T17:17:06;0.00;99.20
4809;DHT22;2418;49.930;8.606;2022-12-10T17:19:37;0.00;99.20
4809;DHT22;2418;49.930;8.606;2022-12-10T17:22:03;0.00;99.20
4809;DHT22;2418;49.930;8.606;2022-12-10T17:24:30;0.10;99.20
4809;DHT22;2418;49.930;8.606;2022-12-10T17:27:03;0.00;99.20
4809;DHT22;2418;49.930;8.606;2022-12-10T17:29:31;0.00;99.20
4809;DHT22;2418;49.930;8.606;2022-12-10T17:31:58;0.00;99.20
4809;DHT22;2418;49.930;8.606;2022-12-10T17:34:23;-0.10;99.20
4809;DHT22;2418;49.930;8.606;2022-12-10T17:36:50;-0.10;99.20
4809;DHT22;2418;49.930;8.606;2022-12-10T17:39:18;-0.20;99.20
4809;DHT22;2418;49.930;8.606;2022-12-10T17:41:44;-0.20;99.20
4809;DHT22;2418;49.930;8.606;2022-12-10T17:44:10;-0.20;99.20
4809;DHT22;2418;49.930;8.606;2022-12-10T17:46:36;-0.30;99.20
4809;DHT22;2418;49.930;8.606;2022-12-10T17:49:02;-0.30;99.20
4809;DHT22;2418;49.930;8.606;2022-12-10T17:51:30;-0.30;99.20
4809;DHT22;2418;49.930;8.606;2022-12-10T17:53:56;-0.30;99.20
4809;DHT22;2418;49.930;8.606;2022-12-10T17:56:23;-0.20;99.20
4809;DHT22;2418;49.930;8.606;2022-12-10T17:58:51;-0.20;99.20
4809;DHT22;2418;49.930;8.606;2022-12-10T18:01:18;-0.20;99.20
4809;DHT22;2418;49.930;8.606;2022-12-10T18:03:44;-0.10;99.20
4809;DHT22;2418;49.930;8.606;2022-12-10T18:06:18;-0.10;99.20
4809;DHT22;2418;49.930;8.606;2022-12-10T18:08:44;-0.20;99.20
4809;DHT22;2418;49.930;8.606;2022-12-10T18:11:15;-0.20;99.20
4809;DHT22;2418;49.930;8.606;2022-12-10T18:13:41;-0.30;99.20
4809;DHT22;2418;49.930;8.606;2022-12-10T18:16:16;-0.40;99.20
4809;DHT22;2418;49.930;8.606;2022-12-10T18:18:42;-0.50;99.20
4809;DHT22;2418;49.930;8.606;2022-12-10T18:21:09;-0.60;99.20
4809;DHT22;2418;49.930;8.606;2022-12-10T18:23:37;-0.70;99.20
4809;DHT22;2418;49.930;8.606;2022-12-10T18:26:08;-0.80;99.20
4809;DHT22;2418;49.930;8.606;2022-12-10T18:31:14;-1.00;99.20
4809;DHT22;2418;49.930;8.606;2022-12-10T18:33:44;-1.10;99.20
4809;DHT22;2418;49.930;8.606;2022-12-10T18:36:17;-1.30;99.20
4809;DHT22;2418;49.930;8.606;2022-12-10T18:38:44;-1.30;99.20
4809;DHT22;2418;49.930;8.606;2022-12-10T18:41:11;-1.40;99.20
4809;DHT22;2418;49.930;8.606;2022-12-10T18:43:38;-1.40;99.20